sensor_id;sensor_type;location;lat;lon;timestamp;P1;durP1;ratioP1;P2;durP2;ratioP2
29902;SDS011;30288;50.514;9.678;2023-02-15T00:00:23;40.35;;;16.63;;
29902;SDS011;30288;50.514;9.678;2023-02-15T00:02:28;41.58;;;17.02;;
29902;SDS011;30288;50.514;9.678;2023-02-15T00:04:33;44.28;;;17.23;;
29902;SDS011;30288;50.514;9.678;2023-02-15T00:06:52;37.92;;;16.45;;
29902;SDS011;30288;50.514;9.678;2023-02-15T00:08:57;38.63;;;16.13;;
29902;SDS011;30288;50.514;9.678;2023-02-15T00:11:03;41.75;;;16.65;;
29902;SDS011;30288;50.514;9.678;2023-02-15T00:13:12;35.10;;;16.25;;
29902;SDS011;30288;50.514;9.678;2023-02-15T00:15:17;37.30;;;16.58;;
29902;SDS011;30288;50.514;9.678;2023-02-15T00:17:22;31.40;;;14.57;;
29902;SDS011;30288;50.514;9.678;2023-02-15T00:19:26;33.47;;;15.75;;
29902;SDS011;30288;50.514;9.678;2023-02-15T00:21:32;31.83;;;15.55;;
29902;SDS011;30288;50.514;9.678;2023-02-15T00:23:39;32.42;;;14.57;;
29902;SDS011;30288;50.514;9.678;2023-02-15T00:25:45;32.92;;;15.05;;
29902;SDS011;30288;50.514;9.678;2023-02-15T00:27:50;30.13;;;14.82;;
29902;SDS011;30288;50.514;9.678;2023-02-15T00:29:57;31.95;;;14.07;;
29902;SDS011;30288;50.514;9.678;2023-02-15T00:32:03;31.73;;;14.75;;
29902;SDS011;30288;50.514;9.678;2023-02-15T00:34:11;31.58;;;14.00;;
29902;SDS011;30288;50.514;9.678;2023-02-15T00:36:18;30.67;;;14.13;;
29902;SDS011;30288;50.514;9.678;2023-02-15T00:38:23;31.48;;;14.15;;
29902;SDS011;30288;50.514;9.678;2023-02-15T00:40:28;32.03;;;14.18;;
29902;SDS011;30288;50.514;9.678;2023-02-15T00:42:32;33.60;;;14.43;;
29902;SDS011;30288;50.514;9.678;2023-02-15T00:44:37;29.23;;;13.98;;
29902;SDS011;30288;50.514;9.678;2023-02-15T00:46:45;32.83;;;14.52;;
29902;SDS011;30288;50.514;9.678;2023-02-15T00:48:49;36.20;;;14.68;;
29902;SDS011;30288;50.514;9.678;2023-02-15T00:50:55;32.78;;;14.15;;
29902;SDS011;30288;50.514;9.678;2023-02-15T00:53:02;33.22;;;14.30;;
29902;SDS011;30288;50.514;9.678;2023-02-15T00:55:07;30.38;;;13.32;;
29902;SDS011;30288;50.514;9.678;2023-02-15T00:57:12;28.33;;;13.77;;
29902;SDS011;30288;50.514;9.678;2023-02-15T00:59:17;29.50;;;13.52;;
29902;SDS011;30288;50.514;9.678;2023-02-15T01:01:21;28.95;;;13.05;;
29902;SDS011;30288;50.514;9.678;2023-02-15T01:03:30;29.02;;;13.27;;
29902;SDS011;30288;50.514;9.678;2023-02-15T01:05:36;31.17;;;13.95;;
29902;SDS011;30288;50.514;9.678;2023-02-15T01:07:41;28.00;;;13.20;;
29902;SDS011;30288;50.514;9.678;2023-02-15T01:09:46;28.67;;;13.88;;
29902;SDS011;30288;50.514;9.678;2023-02-15T01:11:51;26.88;;;13.75;;
29902;SDS011;30288;50.514;9.678;2023-02-15T01:13:56;28.65;;;13.25;;
29902;SDS011;30288;50.514;9.678;2023-02-15T01:16:04;30.95;;;14.07;;
29902;SDS011;30288;50.514;9.678;2023-02-15T01:18:09;28.77;;;13.43;;
29902;SDS011;30288;50.514;9.678;2023-02-15T01:20:18;28.35;;;12.93;;
29902;SDS011;30288;50.514;9.678;2023-02-15T01:22:24;28.30;;;13.07;;
29902;SDS011;30288;50.514;9.678;2023-02-15T01:24:29;27.02;;;11.93;;
29902;SDS011;30288;50.514;9.678;2023-02-15T01:26:36;31.30;;;13.82;;
29902;SDS011;30288;50.514;9.678;2023-02-15T01:28:41;26.15;;;12.57;;
29902;SDS011;30288;50.514;9.678;2023-02-15T01:30:46;26.98;;;13.05;;
29902;SDS011;30288;50.514;9.678;2023-02-15T01:32:51;26.17;;;13.32;;
29902;SDS011;30288;50.514;9.678;2023-02-15T01:34:57;27.35;;;12.13;;
29902;SDS011;30288;50.514;9.678;2023-02-15T01:37:05;27.35;;;13.00;;
29902;SDS011;30288;50.514;9.678;2023-02-15T01:39:09;27.67;;;12.57;;
29902;SDS011;30288;50.514;9.678;2023-02-15T01:41:14;26.88;;;12.70;;
29902;SDS011;30288;50.514;9.678;2023-02-15T01:43:38;24.25;;;11.27;;
29902;SDS011;30288;50.514;9.678;2023-02-15T01:45:46;29.45;;;12.75;;
29902;SDS011;30288;50.514;9.678;2023-02-15T01:47:54;28.75;;;12.20;;
29902;SDS011;30288;50.514;9.678;2023-02-15T01:50:07;19.00;;;9.05;;
29902;SDS011;30288;50.514;9.678;2023-02-15T01:52:20;25.40;;;12.65;;
29902;SDS011;30288;50.514;9.678;2023-02-15T01:54:27;25.23;;;12.32;;
29902;SDS011;30288;50.514;9.678;2023-02-15T01:56:38;26.73;;;12.30;;
29902;SDS011;30288;50.514;9.678;2023-02-15T01:58:45;28.83;;;12.90;;
29902;SDS011;30288;50.514;9.678;2023-02-15T02:00:51;25.90;;;12.10;;
29902;SDS011;30288;50.514;9.678;2023-02-15T02:03:00;26.42;;;12.45;;
29902;SDS011;30288;50.514;9.678;2023-02-15T02:05:07;27.83;;;12.50;;
29902;SDS011;30288;50.514;9.678;2023-02-15T02:07:12;26.90;;;12.35;;
29902;SDS011;30288;50.514;9.678;2023-02-15T02:09:23;26.38;;;12.27;;
29902;SDS011;30288;50.514;9.678;2023-02-15T02:11:29;25.23;;;11.85;;
29902;SDS011;30288;50.514;9.678;2023-02-15T02:13:34;29.15;;;12.15;;
29902;SDS011;30288;50.514;9.678;2023-02-15T02:15:40;31.67;;;13.57;;
29902;SDS011;30288;50.514;9.678;2023-02-15T02:17:54;25.92;;;11.75;;
29902;SDS011;30288;50.514;9.678;2023-02-15T02:20:16;26.00;;;11.50;;
29902;SDS011;30288;50.514;9.678;2023-02-15T02:22:40;26.42;;;11.30;;
29902;SDS011;30288;50.514;9.678;2023-02-15T02:25:15;24.88;;;12.15;;
29902;SDS011;30288;50.514;9.678;2023-02-15T02:28:00;29.00;;;12.55;;
29902;SDS011;30288;50.514;9.678;2023-02-15T02:30:34;27.83;;;12.95;;
29902;SDS011;30288;50.514;9.678;2023-02-15T02:33:15;32.53;;;12.93;;
29902;SDS011;30288;50.514;9.678;2023-02-15T02:35:33;27.73;;;11.85;;
29902;SDS011;30288;50.514;9.678;2023-02-15T02:37:50;26.67;;;12.13;;
29902;SDS011;30288;50.514;9.678;2023-02-15T02:40:08;28.70;;;12.88;;
29902;SDS011;30288;50.514;9.678;2023-02-15T02:42:24;28.98;;;12.45;;
29902;SDS011;30288;50.514;9.678;2023-02-15T02:44:38;29.05;;;13.32;;
29902;SDS011;30288;50.514;9.678;2023-02-15T02:46:49;30.30;;;14.32;;
29902;SDS011;30288;50.514;9.678;2023-02-15T02:49:01;29.35;;;13.57;;
29902;SDS011;30288;50.514;9.678;2023-02-15T02:51:06;29.85;;;13.73;;
29902;SDS011;30288;50.514;9.678;2023-02-15T02:53:11;27.58;;;12.70;;
29902;SDS011;30288;50.514;9.678;2023-02-15T02:55:18;23.98;;;11.10;;
29902;SDS011;30288;50.514;9.678;2023-02-15T02:57:28;29.58;;;12.85;;
29902;SDS011;30288;50.514;9.678;2023-02-15T02:59:36;29.50;;;13.75;;
29902;SDS011;30288;50.514;9.678;2023-02-15T03:01:48;22.98;;;11.10;;
29902;SDS011;30288;50.514;9.678;2023-02-15T03:04:03;27.00;;;13.32;;
29902;SDS011;30288;50.514;9.678;2023-02-15T03:06:13;25.95;;;12.45;;
29902;SDS011;30288;50.514;9.678;2023-02-15T03:08:25;26.85;;;12.57;;
29902;SDS011;30288;50.514;9.678;2023-02-15T03:10:41;31.75;;;14.18;;
29902;SDS011;30288;50.514;9.678;2023-02-15T03:12:47;28.67;;;12.93;;
29902;SDS011;30288;50.514;9.678;2023-02-15T03:14:54;26.20;;;12.13;;
29902;SDS011;30288;50.514;9.678;2023-02-15T03:17:06;25.17;;;12.20;;
29902;SDS011;30288;50.514;9.678;2023-02-15T03:19:15;28.52;;;13.18;;
29902;SDS011;30288;50.514;9.678;2023-02-15T03:21:27;26.63;;;13.20;;
29902;SDS011;30288;50.514;9.678;2023-02-15T03:23:41;27.05;;;12.63;;
29902;SDS011;30288;50.514;9.678;2023-02-15T03:25:48;27.42;;;12.45;;
29902;SDS011;30288;50.514;9.678;2023-02-15T03:27:59;27.77;;;12.57;;
29902;SDS011;30288;50.514;9.678;2023-02-15T03:30:09;29.02;;;13.73;;
29902;SDS011;30288;50.514;9.678;2023-02-15T03:32:18;27.15;;;12.48;;
29902;SDS011;30288;50.514;9.678;2023-02-15T03:34:27;32.20;;;13.80;;
29902;SDS011;30288;50.514;9.678;2023-02-15T03:36:34;29.98;;;14.15;;
29902;SDS011;30288;50.514;9.678;2023-02-15T03:38:47;26.70;;;12.50;;
29902;SDS011;30288;50.514;9.678;2023-02-15T03:41:01;28.98;;;13.20;;
29902;SDS011;30288;50.514;9.678;2023-02-15T03:43:15;28.58;;;12.80;;
29902;SDS011;30288;50.514;9.678;2023-02-15T03:45:29;27.75;;;12.80;;
29902;SDS011;30288;50.514;9.678;2023-02-15T03:47:38;25.73;;;12.63;;
29902;SDS011;30288;50.514;9.678;2023-02-15T03:49:50;30.80;;;13.52;;
29902;SDS011;30288;50.514;9.678;2023-02-15T03:51:59;25.67;;;12.68;;
29902;SDS011;30288;50.514;9.678;2023-02-15T03:54:04;27.17;;;12.93;;
29902;SDS011;30288;50.514;9.678;2023-02-15T03:56:13;28.73;;;12.38;;
29902;SDS011;30288;50.514;9.678;2023-02-15T03:58:18;27.50;;;12.52;;
29902;SDS011;30288;50.514;9.678;2023-02-15T04:00:37;26.75;;;12.27;;
29902;SDS011;30288;50.514;9.678;2023-02-15T04:03:15;27.17;;;11.73;;
29902;SDS011;30288;50.514;9.678;2023-02-15T04:05:33;31.65;;;13.90;;
29902;SDS011;30288;50.514;9.678;2023-02-15T04:07:38;27.38;;;12.13;;
29902;SDS011;30288;50.514;9.678;2023-02-15T04:09:43;25.05;;;11.05;;
29902;SDS011;30288;50.514;9.678;2023-02-15T04:12:00;24.67;;;12.57;;
29902;SDS011;30288;50.514;9.678;2023-02-15T04:14:05;31.30;;;13.45;;
29902;SDS011;30288;50.514;9.678;2023-02-15T04:16:23;28.17;;;12.77;;
29902;SDS011;30288;50.514;9.678;2023-02-15T04:18:32;26.15;;;12.35;;
29902;SDS011;30288;50.514;9.678;2023-02-15T04:20:54;32.17;;;13.73;;
29902;SDS011;30288;50.514;9.678;2023-02-15T04:23:12;28.75;;;11.80;;
29902;SDS011;30288;50.514;9.678;2023-02-15T04:25:29;31.27;;;13.07;;
29902;SDS011;30288;50.514;9.678;2023-02-15T04:27:34;32.35;;;13.30;;
29902;SDS011;30288;50.514;9.678;2023-02-15T04:29:39;30.13;;;13.55;;
29902;SDS011;30288;50.514;9.678;2023-02-15T04:31:44;32.65;;;13.55;;
29902;SDS011;30288;50.514;9.678;2023-02-15T04:33:49;32.25;;;13.65;;
29902;SDS011;30288;50.514;9.678;2023-02-15T04:35:57;32.78;;;13.07;;
29902;SDS011;30288;50.514;9.678;2023-02-15T04:38:02;31.95;;;13.60;;
29902;SDS011;30288;50.514;9.678;2023-02-15T04:40:08;37.15;;;15.65;;
29902;SDS011;30288;50.514;9.678;2023-02-15T04:42:20;31.23;;;12.85;;
29902;SDS011;30288;50.514;9.678;2023-02-15T04:44:24;32.17;;;13.73;;
29902;SDS011;30288;50.514;9.678;2023-02-15T04:46:29;31.63;;;13.82;;
29902;SDS011;30288;50.514;9.678;2023-02-15T04:48:35;31.20;;;13.43;;
29902;SDS011;30288;50.514;9.678;2023-02-15T04:50:40;31.50;;;12.68;;
29902;SDS011;30288;50.514;9.678;2023-02-15T04:52:47;28.20;;;12.23;;
29902;SDS011;30288;50.514;9.678;2023-02-15T04:54:52;27.75;;;11.90;;
29902;SDS011;30288;50.514;9.678;2023-02-15T04:56:58;25.17;;;11.57;;
29902;SDS011;30288;50.514;9.678;2023-02-15T04:59:03;25.27;;;11.77;;
29902;SDS011;30288;50.514;9.678;2023-02-15T05:01:08;25.25;;;12.23;;
29902;SDS011;30288;50.514;9.678;2023-02-15T05:03:14;29.50;;;12.05;;
29902;SDS011;30288;50.514;9.678;2023-02-15T05:05:20;28.05;;;11.77;;
29902;SDS011;30288;50.514;9.678;2023-02-15T05:07:25;27.92;;;12.52;;
29902;SDS011;30288;50.514;9.678;2023-02-15T05:09:33;26.02;;;12.27;;
29902;SDS011;30288;50.514;9.678;2023-02-15T05:11:37;27.98;;;12.10;;
29902;SDS011;30288;50.514;9.678;2023-02-15T05:13:42;25.27;;;11.38;;
29902;SDS011;30288;50.514;9.678;2023-02-15T05:15:48;26.35;;;12.00;;
29902;SDS011;30288;50.514;9.678;2023-02-15T05:17:54;25.08;;;11.30;;
29902;SDS011;30288;50.514;9.678;2023-02-15T05:19:58;31.42;;;13.43;;
29902;SDS011;30288;50.514;9.678;2023-02-15T05:22:04;25.73;;;11.05;;
29902;SDS011;30288;50.514;9.678;2023-02-15T05:24:08;26.48;;;11.48;;
29902;SDS011;30288;50.514;9.678;2023-02-15T05:26:29;26.58;;;11.63;;
29902;SDS011;30288;50.514;9.678;2023-02-15T05:28:46;27.75;;;12.00;;
29902;SDS011;30288;50.514;9.678;2023-02-15T05:30:57;26.23;;;11.13;;
29902;SDS011;30288;50.514;9.678;2023-02-15T05:33:08;22.63;;;10.60;;
29902;SDS011;30288;50.514;9.678;2023-02-15T05:35:13;25.52;;;9.98;;
29902;SDS011;30288;50.514;9.678;2023-02-15T05:37:20;28.33;;;12.00;;
29902;SDS011;30288;50.514;9.678;2023-02-15T05:39:25;26.02;;;10.82;;
29902;SDS011;30288;50.514;9.678;2023-02-15T05:41:32;25.45;;;12.07;;
29902;SDS011;30288;50.514;9.678;2023-02-15T05:43:38;27.38;;;11.45;;
29902;SDS011;30288;50.514;9.678;2023-02-15T05:45:44;28.27;;;12.02;;
29902;SDS011;30288;50.514;9.678;2023-02-15T05:47:49;25.92;;;12.20;;
29902;SDS011;30288;50.514;9.678;2023-02-15T05:49:54;29.15;;;12.15;;
29902;SDS011;30288;50.514;9.678;2023-02-15T05:51:59;28.70;;;12.40;;
29902;SDS011;30288;50.514;9.678;2023-02-15T05:54:04;25.95;;;11.73;;
29902;SDS011;30288;50.514;9.678;2023-02-15T05:56:10;26.08;;;11.70;;
29902;SDS011;30288;50.514;9.678;2023-02-15T05:58:18;27.15;;;10.82;;
29902;SDS011;30288;50.514;9.678;2023-02-15T06:00:24;27.95;;;11.10;;
29902;SDS011;30288;50.514;9.678;2023-02-15T06:02:29;29.20;;;11.88;;
29902;SDS011;30288;50.514;9.678;2023-02-15T06:04:38;24.42;;;10.95;;
29902;SDS011;30288;50.514;9.678;2023-02-15T06:06:43;24.50;;;11.00;;
29902;SDS011;30288;50.514;9.678;2023-02-15T06:08:48;23.67;;;10.93;;
29902;SDS011;30288;50.514;9.678;2023-02-15T06:10:54;26.90;;;11.80;;
29902;SDS011;30288;50.514;9.678;2023-02-15T06:12:59;30.23;;;11.93;;
29902;SDS011;30288;50.514;9.678;2023-02-15T06:15:07;24.90;;;10.88;;
29902;SDS011;30288;50.514;9.678;2023-02-15T06:17:13;26.05;;;10.55;;
29902;SDS011;30288;50.514;9.678;2023-02-15T06:19:18;25.98;;;11.50;;
29902;SDS011;30288;50.514;9.678;2023-02-15T06:21:24;27.33;;;11.15;;
29902;SDS011;30288;50.514;9.678;2023-02-15T06:23:29;28.00;;;12.15;;
29902;SDS011;30288;50.514;9.678;2023-02-15T06:25:34;27.65;;;12.10;;
29902;SDS011;30288;50.514;9.678;2023-02-15T06:27:40;26.70;;;11.82;;
29902;SDS011;30288;50.514;9.678;2023-02-15T06:29:47;25.17;;;12.32;;
29902;SDS011;30288;50.514;9.678;2023-02-15T06:31:55;27.85;;;12.20;;
29902;SDS011;30288;50.514;9.678;2023-02-15T06:34:01;24.60;;;11.40;;
29902;SDS011;30288;50.514;9.678;2023-02-15T06:36:08;24.20;;;10.70;;
29902;SDS011;30288;50.514;9.678;2023-02-15T06:38:14;27.33;;;11.60;;
29902;SDS011;30288;50.514;9.678;2023-02-15T06:40:19;27.85;;;11.80;;
29902;SDS011;30288;50.514;9.678;2023-02-15T06:42:25;27.77;;;11.05;;
29902;SDS011;30288;50.514;9.678;2023-02-15T06:44:30;25.90;;;12.35;;
29902;SDS011;30288;50.514;9.678;2023-02-15T06:46:36;31.25;;;12.35;;
29902;SDS011;30288;50.514;9.678;2023-02-15T06:48:44;25.40;;;11.07;;
29902;SDS011;30288;50.514;9.678;2023-02-15T06:50:50;25.13;;;11.52;;
29902;SDS011;30288;50.514;9.678;2023-02-15T06:52:55;25.15;;;11.70;;
29902;SDS011;30288;50.514;9.678;2023-02-15T06:55:01;28.67;;;10.45;;
29902;SDS011;30288;50.514;9.678;2023-02-15T06:57:07;27.58;;;12.25;;
29902;SDS011;30288;50.514;9.678;2023-02-15T06:59:13;30.60;;;12.43;;
29902;SDS011;30288;50.514;9.678;2023-02-15T07:01:19;28.77;;;11.27;;
29902;SDS011;30288;50.514;9.678;2023-02-15T07:03:25;26.33;;;10.80;;
29902;SDS011;30288;50.514;9.678;2023-02-15T07:05:33;28.30;;;11.65;;
29902;SDS011;30288;50.514;9.678;2023-02-15T07:07:38;28.08;;;11.95;;
29902;SDS011;30288;50.514;9.678;2023-02-15T07:09:44;24.10;;;10.65;;
29902;SDS011;30288;50.514;9.678;2023-02-15T07:11:49;26.20;;;10.48;;
29902;SDS011;30288;50.514;9.678;2023-02-15T07:14:07;27.45;;;11.18;;
29902;SDS011;30288;50.514;9.678;2023-02-15T07:16:13;23.60;;;10.85;;
29902;SDS011;30288;50.514;9.678;2023-02-15T07:18:19;29.23;;;11.65;;
29902;SDS011;30288;50.514;9.678;2023-02-15T07:20:24;27.48;;;11.02;;
29902;SDS011;30288;50.514;9.678;2023-02-15T07:22:33;23.83;;;10.88;;
29902;SDS011;30288;50.514;9.678;2023-02-15T07:24:39;28.42;;;11.35;;
29902;SDS011;30288;50.514;9.678;2023-02-15T07:26:44;24.52;;;11.02;;
29902;SDS011;30288;50.514;9.678;2023-02-15T07:28:50;25.88;;;10.68;;
29902;SDS011;30288;50.514;9.678;2023-02-15T07:30:56;26.65;;;11.90;;
29902;SDS011;30288;50.514;9.678;2023-02-15T07:33:01;26.50;;;11.25;;
29902;SDS011;30288;50.514;9.678;2023-02-15T07:35:20;24.38;;;11.50;;
29902;SDS011;30288;50.514;9.678;2023-02-15T07:37:25;28.58;;;12.52;;
29902;SDS011;30288;50.514;9.678;2023-02-15T07:39:34;28.98;;;11.35;;
29902;SDS011;30288;50.514;9.678;2023-02-15T07:41:40;27.55;;;11.70;;
29902;SDS011;30288;50.514;9.678;2023-02-15T07:43:46;28.65;;;11.82;;
29902;SDS011;30288;50.514;9.678;2023-02-15T07:45:51;32.05;;;12.52;;
29902;SDS011;30288;50.514;9.678;2023-02-15T07:47:57;32.60;;;13.40;;
29902;SDS011;30288;50.514;9.678;2023-02-15T07:50:05;33.95;;;14.30;;
29902;SDS011;30288;50.514;9.678;2023-02-15T07:52:11;39.17;;;14.70;;
29902;SDS011;30288;50.514;9.678;2023-02-15T07:54:16;32.50;;;13.73;;
29902;SDS011;30288;50.514;9.678;2023-02-15T07:56:25;32.80;;;13.32;;
29902;SDS011;30288;50.514;9.678;2023-02-15T07:58:33;38.33;;;15.20;;
29902;SDS011;30288;50.514;9.678;2023-02-15T08:00:51;33.00;;;12.75;;
29902;SDS011;30288;50.514;9.678;2023-02-15T08:03:05;33.50;;;12.95;;
29902;SDS011;30288;50.514;9.678;2023-02-15T08:05:20;28.75;;;12.80;;
29902;SDS011;30288;50.514;9.678;2023-02-15T08:07:25;30.27;;;12.80;;
29902;SDS011;30288;50.514;9.678;2023-02-15T08:09:30;28.65;;;12.40;;
29902;SDS011;30288;50.514;9.678;2023-02-15T08:11:38;28.58;;;11.93;;
29902;SDS011;30288;50.514;9.678;2023-02-15T08:13:44;22.20;;;11.13;;
29902;SDS011;30288;50.514;9.678;2023-02-15T08:15:55;26.65;;;11.57;;
29902;SDS011;30288;50.514;9.678;2023-02-15T08:18:01;26.65;;;11.85;;
29902;SDS011;30288;50.514;9.678;2023-02-15T08:20:08;25.52;;;11.25;;
29902;SDS011;30288;50.514;9.678;2023-02-15T08:22:14;24.17;;;10.65;;
29902;SDS011;30288;50.514;9.678;2023-02-15T08:24:20;20.92;;;10.75;;
29902;SDS011;30288;50.514;9.678;2023-02-15T08:26:28;23.02;;;10.07;;
29902;SDS011;30288;50.514;9.678;2023-02-15T08:28:37;22.17;;;9.80;;
29902;SDS011;30288;50.514;9.678;2023-02-15T08:30:43;20.15;;;9.90;;
29902;SDS011;30288;50.514;9.678;2023-02-15T08:32:48;19.52;;;9.15;;
29902;SDS011;30288;50.514;9.678;2023-02-15T08:34:53;21.17;;;10.23;;
29902;SDS011;30288;50.514;9.678;2023-02-15T08:36:58;21.95;;;10.27;;
29902;SDS011;30288;50.514;9.678;2023-02-15T08:39:05;21.23;;;10.70;;
29902;SDS011;30288;50.514;9.678;2023-02-15T08:41:12;20.67;;;10.68;;
29902;SDS011;30288;50.514;9.678;2023-02-15T08:43:20;21.52;;;10.68;;
29902;SDS011;30288;50.514;9.678;2023-02-15T08:45:29;21.58;;;10.60;;
29902;SDS011;30288;50.514;9.678;2023-02-15T08:47:34;22.45;;;10.15;;
29902;SDS011;30288;50.514;9.678;2023-02-15T08:49:40;24.58;;;11.05;;
29902;SDS011;30288;50.514;9.678;2023-02-15T08:51:46;26.08;;;11.60;;
29902;SDS011;30288;50.514;9.678;2023-02-15T08:53:52;23.38;;;11.70;;
29902;SDS011;30288;50.514;9.678;2023-02-15T08:55:59;23.75;;;11.32;;
29902;SDS011;30288;50.514;9.678;2023-02-15T08:58:04;25.73;;;11.65;;
29902;SDS011;30288;50.514;9.678;2023-02-15T09:00:10;26.00;;;11.80;;
29902;SDS011;30288;50.514;9.678;2023-02-15T09:02:20;25.67;;;11.75;;
29902;SDS011;30288;50.514;9.678;2023-02-15T09:04:25;27.42;;;12.10;;
29902;SDS011;30288;50.514;9.678;2023-02-15T09:06:31;31.25;;;13.27;;
29902;SDS011;30288;50.514;9.678;2023-02-15T09:08:36;25.63;;;12.20;;
29902;SDS011;30288;50.514;9.678;2023-02-15T09:10:42;28.83;;;11.85;;
29902;SDS011;30288;50.514;9.678;2023-02-15T09:12:47;26.15;;;12.85;;
29902;SDS011;30288;50.514;9.678;2023-02-15T09:14:53;25.40;;;11.77;;
29902;SDS011;30288;50.514;9.678;2023-02-15T09:16:57;30.58;;;13.40;;
29902;SDS011;30288;50.514;9.678;2023-02-15T09:19:05;21.92;;;11.43;;
29902;SDS011;30288;50.514;9.678;2023-02-15T09:21:11;25.58;;;12.15;;
29902;SDS011;30288;50.514;9.678;2023-02-15T09:23:18;30.48;;;13.02;;
29902;SDS011;30288;50.514;9.678;2023-02-15T09:25:28;26.95;;;12.40;;
29902;SDS011;30288;50.514;9.678;2023-02-15T09:27:32;27.08;;;11.60;;
29902;SDS011;30288;50.514;9.678;2023-02-15T09:29:38;25.00;;;11.98;;
29902;SDS011;30288;50.514;9.678;2023-02-15T09:31:43;25.48;;;11.52;;
29902;SDS011;30288;50.514;9.678;2023-02-15T09:33:51;26.45;;;12.32;;
29902;SDS011;30288;50.514;9.678;2023-02-15T09:35:59;23.17;;;11.18;;
29902;SDS011;30288;50.514;9.678;2023-02-15T09:38:03;25.10;;;11.23;;
29902;SDS011;30288;50.514;9.678;2023-02-15T09:40:10;23.50;;;11.40;;
29902;SDS011;30288;50.514;9.678;2023-02-15T09:42:24;22.63;;;11.48;;
29902;SDS011;30288;50.514;9.678;2023-02-15T09:47:42;21.75;;;10.85;;
29902;SDS011;30288;50.514;9.678;2023-02-15T09:50:06;21.35;;;11.18;;
29902;SDS011;30288;50.514;9.678;2023-02-15T09:52:38;20.38;;;9.98;;
29902;SDS011;30288;50.514;9.678;2023-02-15T09:55:08;22.65;;;10.48;;
29902;SDS011;30288;50.514;9.678;2023-02-15T09:57:26;21.75;;;11.32;;
29902;SDS011;30288;50.514;9.678;2023-02-15T09:59:41;22.88;;;10.90;;
29902;SDS011;30288;50.514;9.678;2023-02-15T10:02:00;23.13;;;9.82;;
29902;SDS011;30288;50.514;9.678;2023-02-15T10:04:28;21.70;;;10.88;;
29902;SDS011;30288;50.514;9.678;2023-02-15T10:06:56;22.20;;;10.20;;
29902;SDS011;30288;50.514;9.678;2023-02-15T10:09:19;18.67;;;9.32;;
29902;SDS011;30288;50.514;9.678;2023-02-15T10:11:44;21.30;;;10.23;;
29902;SDS011;30288;50.514;9.678;2023-02-15T10:14:10;22.95;;;11.50;;
29902;SDS011;30288;50.514;9.678;2023-02-15T10:16:31;22.27;;;10.70;;
29902;SDS011;30288;50.514;9.678;2023-02-15T10:18:53;22.35;;;10.85;;
29902;SDS011;30288;50.514;9.678;2023-02-15T10:21:06;22.20;;;10.73;;
29902;SDS011;30288;50.514;9.678;2023-02-15T10:23:36;21.42;;;10.45;;
29902;SDS011;30288;50.514;9.678;2023-02-15T10:25:59;23.42;;;12.32;;
29902;SDS011;30288;50.514;9.678;2023-02-15T10:28:16;22.33;;;10.55;;
29902;SDS011;30288;50.514;9.678;2023-02-15T10:30:26;20.65;;;10.75;;
29902;SDS011;30288;50.514;9.678;2023-02-15T10:32:43;20.02;;;10.40;;
29902;SDS011;30288;50.514;9.678;2023-02-15T10:35:02;25.13;;;11.90;;
29902;SDS011;30288;50.514;9.678;2023-02-15T10:37:28;23.08;;;11.90;;
29902;SDS011;30288;50.514;9.678;2023-02-15T10:39:52;20.45;;;10.00;;
29902;SDS011;30288;50.514;9.678;2023-02-15T10:42:14;23.30;;;11.65;;
29902;SDS011;30288;50.514;9.678;2023-02-15T10:44:34;24.73;;;11.13;;
29902;SDS011;30288;50.514;9.678;2023-02-15T10:46:58;24.92;;;11.80;;
29902;SDS011;30288;50.514;9.678;2023-02-15T10:49:35;23.38;;;11.45;;
29902;SDS011;30288;50.514;9.678;2023-02-15T10:51:57;22.52;;;11.68;;
29902;SDS011;30288;50.514;9.678;2023-02-15T10:54:21;22.45;;;10.88;;
29902;SDS011;30288;50.514;9.678;2023-02-15T10:56:38;19.80;;;10.23;;
29902;SDS011;30288;50.514;9.678;2023-02-15T11:01:36;17.02;;;8.48;;
29902;SDS011;30288;50.514;9.678;2023-02-15T11:04:04;22.33;;;11.63;;
29902;SDS011;30288;50.514;9.678;2023-02-15T11:06:42;20.25;;;10.35;;
29902;SDS011;30288;50.514;9.678;2023-02-15T11:08:55;26.63;;;11.85;;
29902;SDS011;30288;50.514;9.678;2023-02-15T11:11:05;21.15;;;10.82;;
29902;SDS011;30288;50.514;9.678;2023-02-15T11:13:14;20.88;;;11.30;;
29902;SDS011;30288;50.514;9.678;2023-02-15T11:15:25;23.33;;;11.80;;
29902;SDS011;30288;50.514;9.678;2023-02-15T11:17:37;23.33;;;10.93;;
29902;SDS011;30288;50.514;9.678;2023-02-15T11:19:50;23.65;;;11.23;;
29902;SDS011;30288;50.514;9.678;2023-02-15T11:22:05;22.85;;;11.20;;
29902;SDS011;30288;50.514;9.678;2023-02-15T11:24:14;20.75;;;11.00;;
29902;SDS011;30288;50.514;9.678;2023-02-15T11:26:24;21.77;;;11.30;;
29902;SDS011;30288;50.514;9.678;2023-02-15T11:28:37;20.02;;;10.65;;
29902;SDS011;30288;50.514;9.678;2023-02-15T11:30:51;19.95;;;10.65;;
29902;SDS011;30288;50.514;9.678;2023-02-15T11:33:00;19.30;;;10.63;;
29902;SDS011;30288;50.514;9.678;2023-02-15T11:35:10;21.42;;;11.02;;
29902;SDS011;30288;50.514;9.678;2023-02-15T11:37:29;20.33;;;10.50;;
29902;SDS011;30288;50.514;9.678;2023-02-15T11:39:41;19.77;;;10.65;;
29902;SDS011;30288;50.514;9.678;2023-02-15T11:41:55;22.30;;;11.45;;
29902;SDS011;30288;50.514;9.678;2023-02-15T11:44:05;21.38;;;10.93;;
29902;SDS011;30288;50.514;9.678;2023-02-15T11:46:20;22.13;;;10.85;;
29902;SDS011;30288;50.514;9.678;2023-02-15T11:48:25;21.88;;;10.60;;
29902;SDS011;30288;50.514;9.678;2023-02-15T11:50:33;20.10;;;10.63;;
29902;SDS011;30288;50.514;9.678;2023-02-15T11:52:38;26.13;;;11.93;;
29902;SDS011;30288;50.514;9.678;2023-02-15T11:54:44;25.33;;;11.52;;
29902;SDS011;30288;50.514;9.678;2023-02-15T11:56:54;23.52;;;11.48;;
29902;SDS011;30288;50.514;9.678;2023-02-15T11:59:01;24.23;;;10.88;;
29902;SDS011;30288;50.514;9.678;2023-02-15T12:01:15;19.67;;;10.80;;
29902;SDS011;30288;50.514;9.678;2023-02-15T12:03:28;21.15;;;11.10;;
29902;SDS011;30288;50.514;9.678;2023-02-15T12:05:47;20.88;;;11.18;;
29902;SDS011;30288;50.514;9.678;2023-02-15T12:08:00;22.25;;;10.98;;
29902;SDS011;30288;50.514;9.678;2023-02-15T12:10:16;21.35;;;11.15;;
29902;SDS011;30288;50.514;9.678;2023-02-15T12:12:26;19.05;;;11.13;;
29902;SDS011;30288;50.514;9.678;2023-02-15T12:14:36;22.58;;;11.60;;
29902;SDS011;30288;50.514;9.678;2023-02-15T12:16:55;21.20;;;11.40;;
29902;SDS011;30288;50.514;9.678;2023-02-15T12:19:01;21.00;;;11.07;;
29902;SDS011;30288;50.514;9.678;2023-02-15T12:21:07;19.55;;;11.05;;
29902;SDS011;30288;50.514;9.678;2023-02-15T12:23:15;21.05;;;11.70;;
29902;SDS011;30288;50.514;9.678;2023-02-15T12:25:22;22.45;;;11.70;;
29902;SDS011;30288;50.514;9.678;2023-02-15T12:27:32;20.50;;;11.85;;
29902;SDS011;30288;50.514;9.678;2023-02-15T12:29:39;23.55;;;13.18;;
29902;SDS011;30288;50.514;9.678;2023-02-15T12:31:47;22.40;;;11.90;;
29902;SDS011;30288;50.514;9.678;2023-02-15T12:33:59;21.75;;;11.90;;
29902;SDS011;30288;50.514;9.678;2023-02-15T12:36:09;21.95;;;11.05;;
29902;SDS011;30288;50.514;9.678;2023-02-15T12:38:23;21.10;;;11.48;;
29902;SDS011;30288;50.514;9.678;2023-02-15T12:40:30;22.85;;;11.48;;
29902;SDS011;30288;50.514;9.678;2023-02-15T12:42:41;22.13;;;12.55;;
29902;SDS011;30288;50.514;9.678;2023-02-15T12:47:26;21.45;;;11.20;;